Time;durP1;ratioP1;P1;durP2;ratioP2;P2;SDS_P1;SDS_P2;PMS_P1;PMS_P2;Temp;Humidity;BMP_temperature;BMP_pressure;BME280_temperature;BME280_humidity;BME280_pressure;Samples;Min_cycle;Max_cycle;Signal;HPM_P1;HPM_P2
2023/05/22 00:00:07;;;;;;;34.47;23.25;;;;;;;;;;5137896;27;20108;-90
2023/05/22 00:02:52;;;;;;;31.23;22.90;;;;;;;;;;5148127;27;20046;-92
2023/05/22 00:05:37;;;;;;;32.70;22.63;;;;;;;;;;5117676;27;20086;-91
2023/05/22 00:08:22;;;;;;;35.08;22.85;;;;;;;;;;5116839;27;20041;-91
2023/05/22 00:11:06;;;;;;;35.15;22.88;;;;;;;;;;5134941;27;20073;-92
2023/05/22 00:13:52;;;;;;;32.28;22.60;;;;;;;;;;5142886;27;20386;-91
2023/05/22 00:16:36;;;;;;;34.00;23.48;;;;;;;;;;5118229;27;20534;-91
2023/05/22 00:19:21;;;;;;;30.85;23.10;;;;;;;;;;5108516;27;20542;-92
2023/05/22 00:22:06;;;;;;;33.80;23.70;;;;;;;;;;5153424;27;20065;-91
2023/05/22 00:24:50;;;;;;;32.42;23.73;;;;;;;;;;5120698;27;20471;-91
2023/05/22 00:27:35;;;;;;;32.75;24.15;;;;;;;;;;5127462;27;20053;-91
2023/05/22 00:30:19;;;;;;;38.85;22.75;;;;;;;;;;5136803;27;20476;-91
2023/05/22 00:33:03;;;;;;;31.88;22.92;;;;;;;;;;5137642;27;20049;-92
2023/05/22 00:35:48;;;;;;;32.80;22.48;;;;;;;;;;5123130;27;20513;-91
2023/05/22 00:38:35;;;;;;;34.05;23.60;;;;;;;;;;5122334;27;20115;-91
2023/05/22 00:41:21;;;;;;;38.45;24.05;;;;;;;;;;5137190;27;20069;-91
2023/05/22 00:44:06;;;;;;;33.83;23.65;;;;;;;;;;5123403;27;20033;-92
2023/05/22 00:46:51;;;;;;;30.63;23.10;;;;;;;;;;5123076;27;20402;-92
2023/05/22 00:49:36;;;;;;;33.85;24.33;;;;;;;;;;5122605;27;20038;-92
2023/05/22 00:52:21;;;;;;;33.45;24.10;;;;;;;;;;5122867;27;20086;-91
2023/05/22 00:55:06;;;;;;;30.48;23.13;;;;;;;;;;5137489;27;20037;-93
2023/05/22 00:57:51;;;;;;;35.60;25.30;;;;;;;;;;5137891;27;20071;-92
2023/05/22 01:00:36;;;;;;;34.22;24.23;;;;;;;;;;5136934;27;20081;-92
2023/05/22 01:03:24;;;;;;;36.05;25.90;;;;;;;;;;5152630;27;20069;-91
2023/05/22 01:06:09;;;;;;;33.72;25.60;;;;;;;;;;5138119;27;20037;-92
2023/05/22 01:08:53;;;;;;;33.28;23.63;;;;;;;;;;5153158;27;20079;-92
2023/05/22 01:11:47;;;;;;;33.13;25.80;;;;;;;;;;5136974;27;20077;-92
2023/05/22 01:14:48;;;;;;;31.25;23.48;;;;;;;;;;5136629;27;20049;-91
2023/05/22 01:17:45;;;;;;;34.13;25.13;;;;;;;;;;5152147;27;20065;-93
2023/05/22 01:20:33;;;;;;;36.22;24.90;;;;;;;;;;5136864;27;20037;-92
2023/05/22 01:23:56;;;;;;;45.60;28.30;;;17.50;99.90;;;;;;5152467;27;20109;-91
2023/05/22 01:26:44;;;;;;;34.45;26.13;;;;;;;;;;5108005;27;20053;-92
2023/05/22 01:29:54;;;;;;;34.55;24.85;;;17.40;99.90;;;;;;5130539;27;20038;-91
2023/05/22 01:32:41;;;;;;;35.22;26.60;;;;;;;;;;5111257;27;20042;-92
2023/05/22 01:35:25;;;;;;;36.22;25.98;;;;;;;;;;5152237;27;20041;-92
2023/05/22 01:38:10;;;;;;;33.72;25.40;;;;;;;;;;5138153;27;20402;-92
2023/05/22 01:40:56;;;;;;;35.35;24.63;;;;;;;;;;5131165;27;20446;-92
2023/05/22 01:43:41;;;;;;;33.63;23.27;;;;;;;;;;5120382;27;20034;-92
2023/05/22 01:46:27;;;;;;;36.63;27.38;;;;;;;;;;5149550;27;20069;-91
2023/05/22 01:49:12;;;;;;;33.90;25.17;;;;;;;;;;5140978;27;20037;-90
2023/05/22 01:51:58;;;;;;;35.10;27.02;;;;;;;;;;5140319;27;20076;-91
2023/05/22 01:54:49;;;;;;;37.28;27.23;;;;;;;;;;5140180;27;20091;-91
2023/05/22 01:57:52;;;;;;;38.05;26.95;;;;;;;;;;5140054;27;20510;-91
2023/05/22 02:00:40;;;;;;;37.47;26.13;;;;;;;;;;5150791;27;20138;-93
2023/05/22 02:03:29;;;;;;;37.28;27.45;;;;;;;;;;5105113;27;20092;-92
2023/05/22 02:06:14;;;;;;;37.00;25.80;;;;;;;;;;5128955;27;20137;-92
2023/05/22 02:09:02;;;;;;;34.55;25.60;;;;;;;;;;5140049;27;20048;-92
2023/05/22 02:11:47;;;;;;;37.47;28.30;;;;;;;;;;5155642;27;20038;-92
2023/05/22 02:14:32;;;;;;;40.45;28.17;;;;;;;;;;5139640;27;20038;-92
2023/05/22 02:17:16;;;;;;;39.22;27.77;;;;;;;;;;5125777;27;20042;-92
2023/05/22 02:20:01;;;;;;;40.15;26.73;;;;;;;;;;5155824;27;20033;-93
2023/05/22 02:22:46;;;;;;;42.10;27.70;;;;;;;;;;5139237;27;20041;-92
2023/05/22 02:25:31;;;;;;;40.28;28.50;;;;;;;;;;5139390;27;20101;-91
2023/05/22 02:28:16;;;;;;;37.22;27.58;;;;;;;;;;5155362;27;20433;-90
2023/05/22 02:31:02;;;;;;;40.67;28.27;;;;;;;;;;5125303;27;20095;-91
2023/05/22 02:33:47;;;;;;;34.78;27.60;;;;;;;;;;5131516;27;20045;-91
2023/05/22 02:36:31;;;;;;;35.45;25.92;;;;;;;;;;5135044;27;20046;-91
2023/05/22 02:39:17;;;;;;;36.65;26.48;;;;;;;;;;5155403;27;20055;-91
2023/05/22 02:42:02;;;;;;;36.72;26.50;;;;;;;;;;5155138;27;20044;-91
2023/05/22 02:44:47;;;;;;;41.42;27.40;;;;;;;;;;5154568;27;20065;-91
2023/05/22 02:47:33;;;;;;;37.78;28.25;;;;;;;;;;5154661;27;20490;-91
2023/05/22 02:50:18;;;;;;;41.03;28.30;;;;;;;;;;5154416;27;20041;-92
2023/05/22 02:53:02;;;;;;;35.45;27.10;;;;;;;;;;5139558;27;20041;-92
2023/05/22 02:55:47;;;;;;;32.08;25.33;;;;;;;;;;5124276;27;20164;-91
2023/05/22 02:58:31;;;;;;;39.10;27.42;;;;;;;;;;5152689;27;20069;-92
2023/05/22 03:01:16;;;;;;;37.45;26.90;;;;;;;;;;5114785;27;20133;-92
2023/05/22 03:04:00;;;;;;;36.63;27.08;;;;;;;;;;5124735;27;20531;-91
2023/05/22 03:06:45;;;;;;;37.00;26.88;;;;;;;;;;5138858;27;20046;-93
2023/05/22 03:09:30;;;;;;;40.17;28.27;;;;;;;;;;5154468;27;20486;-91
2023/05/22 03:12:14;;;;;;;51.67;25.38;;;;;;;;;;5139048;27;20037;-93
2023/05/22 03:14:59;;;;;;;38.50;26.92;;;;;;;;;;5139238;27;20433;-92
2023/05/22 03:17:43;;;;;;;40.58;26.73;;;;;;;;;;5118395;27;20068;-91
2023/05/22 03:20:28;;;;;;;37.58;27.60;;;;;;;;;;5148464;27;20079;-93
2023/05/22 03:23:13;;;;;;;35.65;27.77;;;;;;;;;;5138667;27;20103;-90
2023/05/22 03:25:58;;;;;;;40.50;28.08;;;;;;;;;;5124386;27;20118;-92
2023/05/22 03:28:42;;;;;;;40.80;28.60;;;;;;;;;;5145743;27;20084;-90
2023/05/22 03:31:28;;;;;;;37.47;26.60;;;;;;;;;;5118017;27;20576;-91
2023/05/22 03:34:12;;;;;;;41.33;28.40;;;;;;;;;;5145107;27;20033;-91
2023/05/22 03:36:57;;;;;;;37.45;27.48;;;;;;;;;;5138556;27;20061;-90
2023/05/22 03:39:42;;;;;;;37.88;27.40;;;;;;;;;;5137718;27;20065;-90
2023/05/22 03:42:26;;;;;;;38.72;27.67;;;;;;;;;;5138310;27;20091;-91
2023/05/22 03:45:11;;;;;;;41.58;28.38;;;;;;;;;;5138385;27;20103;-91
2023/05/22 03:47:56;;;;;;;34.63;26.23;;;;;;;;;;5123361;27;20519;-91
2023/05/22 03:50:40;;;;;;;39.00;28.52;;;;;;;;;;5130720;27;20083;-92
2023/05/22 03:53:25;;;;;;;38.80;28.88;;;;;;;;;;5132907;27;20052;-91
2023/05/22 03:56:09;;;;;;;36.33;27.45;;;;;;;;;;5153715;27;20045;-91
2023/05/22 03:58:55;;;;;;;37.95;27.80;;;;;;;;;;5137247;27;20079;-91
2023/05/22 04:01:42;;;;;;;37.75;26.83;;;;;;;;;;5153150;27;20049;-91
2023/05/22 04:04:27;;;;;;;32.47;25.88;;;;;;;;;;5129598;27;20414;-91
2023/05/22 04:07:12;;;;;;;37.63;25.42;;;;;;;;;;5150184;27;20045;-90
2023/05/22 04:09:56;;;;;;;39.63;24.92;;;;;;;;;;5137455;27;20037;-90
2023/05/22 04:12:41;;;;;;;33.30;26.48;;;;;;;;;;5137269;27;20030;-91
2023/05/22 04:15:27;;;;;;;33.25;25.30;;;;;;;;;;5122631;27;20455;-92
2023/05/22 04:18:11;;;;;;;33.13;25.08;;;;;;;;;;5126928;27;20037;-91
2023/05/22 04:20:56;;;;;;;30.88;23.58;;;;;;;;;;5152758;27;20095;-91
2023/05/22 04:23:42;;;;;;;32.22;24.40;;;;;;;;;;5140925;27;20046;-91
2023/05/22 04:26:30;;;;;;;30.42;23.63;;;;;;;;;;5153232;27;20041;-91
2023/05/22 04:29:15;;;;;;;36.42;26.50;;;;;;;;;;5153421;27;20038;-90
2023/05/22 04:32:00;;;;;;;32.20;25.60;;;;;;;;;;5115129;27;20221;-91
2023/05/22 04:34:46;;;;;;;36.92;25.88;;;;;;;;;;5132709;27;20418;-90
2023/05/22 04:37:31;;;;;;;33.47;25.08;;;;;;;;;;5143448;27;20041;-90
2023/05/22 04:40:16;;;;;;;33.65;25.83;;;;;;;;;;5116964;27;20041;-91
2023/05/22 04:43:02;;;;;;;30.73;24.15;;;;;;;;;;5116557;28;20035;-91
2023/05/22 04:45:47;;;;;;;32.10;24.38;;;;;;;;;;5115493;27;20049;-90
2023/05/22 04:48:32;;;;;;;33.20;25.88;;;;;;;;;;5152895;27;20155;-90
2023/05/22 04:51:16;;;;;;;33.80;24.70;;;;;;;;;;5122469;28;20093;-91
2023/05/22 04:54:01;;;;;;;33.97;25.63;;;;;;;;;;5132205;27;20091;-91
2023/05/22 04:56:46;;;;;;;33.35;26.48;;;;;;;;;;5131273;27;20042;-92
2023/05/22 04:59:32;;;;;;;32.60;24.30;;;;;;;;;;5117798;28;20062;-91
2023/05/22 05:02:17;;;;;;;39.60;26.35;;;;;;;;;;5130120;28;20056;-92
2023/05/22 05:05:01;;;;;;;33.08;26.20;;;;;;;;;;5125559;28;20031;-92
2023/05/22 05:07:47;;;;;;;36.30;26.17;;;;;;;;;;5112931;28;20034;-92
2023/05/22 05:10:31;;;;;;;37.05;27.88;;;;;;;;;;5128098;28;20057;-91
2023/05/22 05:13:16;;;;;;;38.63;27.90;;;;;;;;;;5135857;27;20083;-92
2023/05/22 05:16:02;;;;;;;36.53;27.40;;;;;;;;;;5134546;27;20122;-89
2023/05/22 05:18:47;;;;;;;37.25;27.58;;;;;;;;;;5134549;27;20110;-91
2023/05/22 05:21:32;;;;;;;38.47;25.85;;;;;;;;;;5106313;27;20475;-92
2023/05/22 05:24:17;;;;;;;36.55;27.58;;;;;;;;;;5104120;28;20535;-91
2023/05/22 05:27:01;;;;;;;37.17;26.30;;;;;;;;;;5130779;27;20042;-92
2023/05/22 05:29:46;;;;;;;34.17;26.20;;;;;;;;;;5120224;27;20503;-91
2023/05/22 05:32:30;;;;;;;35.33;25.17;;;;;;;;;;5113258;27;20047;-91
2023/05/22 05:35:15;;;;;;;34.90;25.65;;;;;;;;;;5124456;27;20034;-90
2023/05/22 05:38:00;;;;;;;30.98;24.83;;;;;;;;;;5128519;27;20062;-91
2023/05/22 05:40:45;;;;;;;34.90;24.08;;;;;;;;;;5102226;27;20042;-92
2023/05/22 05:43:30;;;;;;;33.78;26.33;;;;;;;;;;5132466;27;20524;-92
2023/05/22 05:46:15;;;;;;;35.20;25.73;;;;;;;;;;5123149;27;20511;-92
2023/05/22 05:49:08;;;;;;;31.70;22.90;;;;;;;;;;5129262;27;20030;-90
2023/05/22 05:51:54;;;;;;;31.60;23.10;;;;;;;;;;5130835;27;20525;-94
2023/05/22 05:54:45;;;;;;;32.47;24.00;;;;;;;;;;5119906;27;20057;-92
2023/05/22 05:57:30;;;;;;;31.63;21.85;;;;;;;;;;5121051;27;20424;-91
2023/05/22 06:00:15;;;;;;;31.48;22.50;;;;;;;;;;5148042;27;20139;-93
2023/05/22 06:03:02;;;;;;;24.23;19.70;;;;;;;;;;5133845;27;20026;-91
2023/05/22 06:05:46;;;;;;;29.77;21.40;;;;;;;;;;5136678;27;20047;-92
2023/05/22 06:08:31;;;;;;;26.90;20.75;;;;;;;;;;5133917;27;20045;-92
2023/05/22 06:11:15;;;;;;;28.88;20.95;;;;;;;;;;5123113;27;20034;-93
2023/05/22 06:14:09;;;;;;;31.50;19.77;;;;;;;;;;5146373;27;20080;-92
2023/05/22 06:16:53;;;;;;;24.80;18.73;;;;;;;;;;5132106;27;20493;-93
2023/05/22 06:19:38;;;;;;;24.80;18.98;;;;;;;;;;5140044;27;20041;-93
2023/05/22 06:22:24;;;;;;;28.48;18.95;;;;;;;;;;5140296;27;20075;-93
2023/05/22 06:25:09;;;;;;;28.42;18.50;;;;;;;;;;5134525;27;20038;-91
2023/05/22 06:27:54;;;;;;;23.25;18.17;;;;;;;;;;5132075;27;20054;-91
2023/05/22 06:30:38;;;;;;;25.00;18.60;;;;;;;;;;5124938;27;20108;-92
2023/05/22 06:33:23;;;;;;;24.88;17.52;;;;;;;;;;5139669;27;20136;-91
2023/05/22 06:36:07;;;;;;;23.65;16.38;;;;;;;;;;5138478;27;20057;-91
2023/05/22 06:38:53;;;;;;;25.45;17.65;;;;;;;;;;5131861;27;20042;-90
2023/05/22 06:41:38;;;;;;;23.45;16.25;;;;;;;;;;5135876;27;20118;-92
2023/05/22 06:44:24;;;;;;;23.58;16.83;;;;;;;;;;5155309;27;20034;-91
2023/05/22 06:47:10;;;;;;;22.98;16.08;;;;;;;;;;5139936;27;20083;-92
2023/05/22 06:49:54;;;;;;;18.88;15.50;;;;;;;;;;5149992;27;20037;-88
2023/05/22 06:52:39;;;;;;;21.60;16.25;;;;;;;;;;5149090;27;20402;-92
2023/05/22 06:55:24;;;;;;;22.75;15.90;;;;;;;;;;5121812;27;20508;-90
2023/05/22 06:58:08;;;;;;;23.77;15.00;;;;;;;;;;5111732;27;20410;-91
2023/05/22 07:00:54;;;;;;;22.52;13.68;;;;;;;;;;5124647;27;20111;-90
2023/05/22 07:03:38;;;;;;;20.17;13.93;;;;;;;;;;5138562;27;20046;-92
2023/05/22 07:06:23;;;;;;;21.63;14.27;;;;;;;;;;5116258;27;20060;-89
2023/05/22 07:09:10;;;;;;;16.27;13.43;;;;;;;;;;5155898;27;20075;-90
2023/05/22 07:11:54;;;;;;;17.70;12.55;;;;;;;;;;5147693;27;20044;-89
2023/05/22 07:14:39;;;;;;;19.95;13.07;;;;;;;;;;5154402;27;20038;-91
2023/05/22 07:17:23;;;;;;;20.10;12.95;;;;;;;;;;5128894;27;20423;-90
2023/05/22 07:20:10;;;;;;;15.35;11.77;;;;;;;;;;5129209;27;20065;-89
2023/05/22 07:22:57;;;;;;;21.25;13.57;;;;;;;;;;5125959;27;20403;-90
2023/05/22 07:25:42;;;;;;;21.00;12.52;;;;;;;;;;5152490;27;20067;-91
2023/05/22 07:28:26;;;;;;;21.80;11.55;;;;;;;;;;5138315;27;20125;-91
2023/05/22 07:31:11;;;;;;;17.75;11.13;;;;;;;;;;5138008;27;20046;-90
2023/05/22 07:33:56;;;;;;;25.20;12.35;;;;;;;;;;5153984;27;20037;-90
2023/05/22 07:36:41;;;;;;;19.67;10.27;;;;;;;;;;5119812;27;20057;-90
2023/05/22 07:39:26;;;;;;;18.77;10.18;;;;;;;;;;5130608;27;20037;-90
2023/05/22 07:42:13;;;;;;;18.73;9.55;;;;;;;;;;5130233;27;20038;-92
2023/05/22 07:44:58;;;;;;;26.45;9.85;;;;;;;;;;5149317;27;20082;-91
2023/05/22 07:47:42;;;;;;;21.80;9.38;;;;;;;;;;5153963;27;20543;-91
2023/05/22 07:50:29;;;;;;;24.60;10.10;;;;;;;;;;5152295;27;20045;-91
2023/05/22 07:53:13;;;;;;;14.52;8.95;;;;;;;;;;5138087;27;20072;-90
2023/05/22 07:55:58;;;;;;;17.13;8.82;;;;;;;;;;5141682;27;20037;-91
2023/05/22 07:58:43;;;;;;;27.25;9.18;;;;;;;;;;5109084;27;20512;-90
2023/05/22 08:01:27;;;;;;;16.63;8.98;;;;;;;;;;5126280;27;20142;-90
2023/05/22 08:04:12;;;;;;;18.55;8.18;;;;;;;;;;5132460;27;20038;-90
2023/05/22 08:06:57;;;;;;;21.55;8.45;;;;;;;;;;5147307;27;20738;-91
2023/05/22 08:09:44;;;;;;;23.27;9.15;;;;;;;;;;5114049;27;20157;-91
2023/05/22 08:12:29;;;;;;;22.60;9.30;;;;;;;;;;5117939;27;20050;-89
2023/05/22 08:15:14;;;;;;;27.65;8.75;;;;;;;;;;5146322;27;20033;-90
2023/05/22 08:17:59;;;;;;;23.95;8.32;;;;;;;;;;5155042;27;20114;-90
2023/05/22 08:20:46;;;;;;;18.00;8.52;;;;;;;;;;5138050;27;20479;-89
2023/05/22 08:23:31;;;;;;;20.05;8.68;;;;;;;;;;5125171;27;20033;-90
2023/05/22 08:26:16;;;;;;;28.77;9.25;;;;;;;;;;5145490;27;20042;-89
2023/05/22 08:29:00;;;;;;;24.45;9.23;;;;;;;;;;5122853;27;20126;-90
2023/05/22 08:31:45;;;;;;;24.77;8.40;;;;;;;;;;5125172;27;20501;-92
2023/05/22 08:34:31;;;;;;;32.17;10.13;;;;;;;;;;5132158;27;20114;-90
2023/05/22 08:37:16;;;;;;;21.10;9.02;;;;;;;;;;5106279;27;20054;-89
2023/05/22 08:40:01;;;;;;;29.63;9.88;;;;;;;;;;5134450;27;20095;-91
2023/05/22 08:42:46;;;;;;;22.85;9.40;;;;;;;;;;5137271;27;20076;-90
2023/05/22 08:45:32;;;;;;;21.55;8.63;;;;;;;;;;5122831;27;20090;-89
2023/05/22 08:48:18;;;;;;;23.92;9.15;;;;;;;;;;5150984;27;20042;-90
2023/05/22 08:51:04;;;;;;;26.88;9.88;;;;;;;;;;5155502;27;20117;-90
2023/05/22 08:53:51;;;;;;;24.52;9.98;;;;;;;;;;5138759;27;20037;-91
2023/05/22 08:56:36;;;;;;;25.75;9.77;;;;;;;;;;5127727;27;20540;-90
2023/05/22 08:59:21;;;;;;;23.27;9.93;;;;;;;;;;5149506;27;20076;-90
2023/05/22 09:02:06;;;;;;;20.35;9.57;;;;;;;;;;5138172;27;20436;-91
2023/05/22 09:04:51;;;;;;;18.40;10.00;;;;;;;;;;5141249;27;20442;-90
2023/05/22 09:07:37;;;;;;;21.52;10.32;;;;;;;;;;5120499;27;20087;-89
2023/05/22 09:10:22;;;;;;;23.80;9.23;;;;;;;;;;5140608;27;20061;-91
2023/05/22 09:13:08;;;;;;;24.35;10.10;;;;;;;;;;5141369;27;20046;-91
2023/05/22 09:15:53;;;;;;;19.17;9.45;;;;;;;;;;5140575;27;20410;-90
2023/05/22 09:18:38;;;;;;;22.13;10.50;;;;;;;;;;5140966;27;20539;-91
2023/05/22 09:21:28;;;;;;;25.55;10.65;;;;;;;;;;5138329;27;20529;-91
2023/05/22 09:24:12;;;;;;;23.02;10.02;;;;;;;;;;5149400;27;20517;-90
2023/05/22 09:26:59;;;;;;;17.65;8.90;;;;;;;;;;5126357;27;20081;-91
2023/05/22 09:29:48;;;;;;;18.60;9.13;;;;;;;;;;5141944;27;20038;-90
2023/05/22 09:32:33;;;;;;;18.27;9.02;;;;;;;;;;5156191;27;20079;-90
2023/05/22 09:35:18;;;;;;;22.33;10.48;;;;;;;;;;5119620;27;20038;-91
2023/05/22 09:38:03;;;;;;;26.80;9.45;;;;;;;;;;5115904;27;20034;-90
2023/05/22 09:40:52;;;;;;;20.58;10.18;;;;;;;;;;5142471;27;20046;-90
2023/05/22 09:43:36;;;;;;;23.02;10.32;;;;;;;;;;5139483;27;20061;-91
2023/05/22 09:46:21;;;;;;;22.20;10.20;;;;;;;;;;5144769;27;20054;-90
2023/05/22 09:49:06;;;;;;;16.48;8.07;;;;;;;;;;5143568;27;20110;-91
2023/05/22 09:51:53;;;;;;;18.05;9.18;;;;;;;;;;5126506;27;20130;-91
2023/05/22 09:54:54;;;;;;;17.85;8.32;;;;;;;;;;5155541;27;20106;-91
2023/05/22 09:57:47;;;;;;;19.50;9.13;;;;;;;;;;5154930;27;20501;-91
2023/05/22 10:00:33;;;;;;;17.58;9.35;;;;;;;;;;5155550;27;20087;-91
2023/05/22 10:03:22;;;;;;;18.88;10.05;;;;;;;;;;5133065;27;20041;-91
2023/05/22 10:06:08;;;;;;;19.45;9.77;;;;;;;;;;5137302;27;20041;-90
2023/05/22 10:09:03;;;;;;;18.23;9.38;;;;;;;;;;5155781;27;20037;-91
2023/05/22 10:11:50;;;;;;;18.10;9.75;;;;;;;;;;5139985;27;20088;-92
2023/05/22 10:14:35;;;;;;;17.83;10.18;;;;;;;;;;5132312;27;20033;-90
2023/05/22 10:17:20;;;;;;;19.05;9.30;;;;;;;;;;5138994;27;20096;-91
2023/05/22 10:20:06;;;;;;;16.23;8.90;;;;;;;;;;5132701;27;20065;-92
2023/05/22 10:22:52;;;;;;;18.85;9.45;;;21.70;99.90;;;;;;5139803;27;20079;-91
2023/05/22 10:25:37;;;;;;;21.63;9.45;;;;;;;;;;5155102;27;20038;-90
2023/05/22 10:28:29;;;;;;;18.70;10.07;;;;;;;;;;5110646;27;20034;-89
2023/05/22 10:31:23;;;;;;;19.67;10.00;;;;;;;;;;5139583;27;20394;-92
2023/05/22 10:34:09;;;;;;;14.40;8.90;;;;;;;;;;5144650;27;20091;-91
2023/05/22 10:37:02;;;;;;;13.27;8.93;;;;;;;;;;5136535;27;20062;-91
2023/05/22 10:40:01;;;;;;;15.93;9.50;;;;;;;;;;5149805;27;20054;-90
2023/05/22 10:42:45;;;;;;;18.50;10.35;;;;;;;;;;5137421;27;20394;-90
2023/05/22 10:45:33;;;;;;;15.40;10.07;;;;;;;;;;5124730;27;20095;-91
2023/05/22 10:48:22;;;;;;;17.58;9.93;;;;;;;;;;5139789;27;20059;-93
2023/05/22 10:51:07;;;;;;;18.60;9.85;;;;;;;;;;5157334;27;20038;-93
2023/05/22 10:53:53;;;;;;;19.38;10.07;;;;;;;;;;5139299;27;20057;-90
2023/05/22 10:56:38;;;;;;;15.70;9.43;;;;;;;;;;5150366;27;20120;-89
2023/05/22 10:59:33;;;;;;;18.35;10.52;;;;;;;;;;5134852;27;20049;-91
2023/05/22 11:02:21;;;;;;;15.23;10.55;;;;;;;;;;5133941;27;20100;-91
2023/05/22 11:05:21;;;;;;;17.60;9.65;;;;;;;;;;5147977;27;20156;-89
2023/05/22 11:08:32;;;;;;;14.55;9.85;;;;;;;;;;5150719;27;20110;-91
2023/05/22 11:11:17;;;;;;;19.45;9.73;;;;;;;;;;5130142;27;20041;-92
2023/05/22 11:14:04;;;;;;;16.23;9.73;;;;;;;;;;5138558;27;20122;-92
2023/05/22 11:16:49;;;;;;;17.63;10.10;;;;;;;;;;5128893;27;20091;-91
2023/05/22 11:19:34;;;;;;;24.85;9.57;;;;;;;;;;5139953;27;20114;-92
2023/05/22 11:22:18;;;;;;;16.80;10.20;;;;;;;;;;5149344;27;20087;-93
2023/05/22 11:25:09;;;;;;;16.80;10.18;;;24.50;99.90;;;;;;5154240;27;20492;-92
2023/05/22 11:27:54;;;;;;;12.63;9.02;;;;;;;;;;5130079;27;20034;-90
2023/05/22 11:30:40;;;;;;;13.75;8.20;;;;;;;;;;5143076;27;20091;-92
2023/05/22 11:33:25;;;;;;;11.50;8.32;;;;;;;;;;5138520;27;20034;-91
2023/05/22 11:36:09;;;;;;;13.30;8.20;;;;;;;;;;5137882;27;20087;-91
2023/05/22 11:39:01;;;;;;;14.23;9.68;;;;;;;;;;5141156;27;20057;-89
2023/05/22 11:41:46;;;;;;;18.90;9.13;;;;;;;;;;5151432;27;20037;-91
2023/05/22 11:44:31;;;;;;;14.32;8.60;;;;;;;;;;5138313;27;20046;-90
2023/05/22 11:47:15;;;;;;;14.45;9.02;;;;;;;;;;5135561;27;20104;-93
2023/05/22 11:50:01;;;;;;;14.35;8.38;;;;;;;;;;5143000;27;20385;-94
2023/05/22 11:52:46;;;;;;;16.48;9.25;;;;;;;;;;5131398;27;20042;-92
2023/05/22 11:55:32;;;;;;;14.05;9.43;;;;;;;;;;5108577;27;20073;-90
2023/05/22 11:58:21;;;;;;;13.10;10.13;;;;;;;;;;5144855;27;20068;-91
2023/05/22 12:01:06;;;;;;;14.65;9.88;;;;;;;;;;5152835;27;20056;-91
2023/05/22 12:03:53;;;;;;;13.55;9.13;;;;;;;;;;5125831;27;20051;-91
2023/05/22 12:06:37;;;;;;;18.48;10.73;;;;;;;;;;5113688;27;20096;-93
2023/05/22 12:09:23;;;;;;;14.00;10.45;;;;;;;;;;5117938;27;20502;-92
2023/05/22 12:12:11;;;;;;;17.38;11.55;;;;;;;;;;5137659;27;20038;-93
2023/05/22 12:14:57;;;;;;;14.50;10.65;;;;;;;;;;5127177;27;20566;-92
2023/05/22 12:17:42;;;;;;;17.00;10.23;;;;;;;;;;5136958;27;20060;-91
2023/05/22 12:20:30;;;;;;;14.10;10.95;;;;;;;;;;5137644;27;20053;-93
2023/05/22 12:23:22;;;;;;;13.95;10.18;;;;;;;;;;5136546;27;20056;-91
2023/05/22 12:26:09;;;;;;;14.98;10.45;;;;;;;;;;5153306;27;20501;-91
2023/05/22 12:28:54;;;;;;;14.73;11.10;;;;;;;;;;5126354;27;20090;-92
2023/05/22 12:31:39;;;;;;;17.27;11.50;;;;;;;;;;5150672;27;20053;-92
2023/05/22 12:34:25;;;;;;;15.65;11.07;;;;;;;;;;5153295;27;20033;-93
2023/05/22 12:37:26;;;;;;;15.10;9.95;;;;;;;;;;5120847;27;20562;-93
2023/05/22 12:40:11;;;;;;;14.43;10.15;;;;;;;;;;5137319;27;20079;-92
2023/05/22 12:42:57;;;;;;;17.02;10.13;;;;;;;;;;5137221;27;20041;-93
2023/05/22 12:45:41;;;;;;;13.18;10.30;;;;;;;;;;5137252;27;20497;-93
2023/05/22 12:48:26;;;;;;;15.40;10.35;;;;;;;;;;5140785;27;20083;-91
2023/05/22 12:51:10;;;;;;;14.05;9.73;;;;;;;;;;5137456;27;20041;-92
2023/05/22 12:53:55;;;;;;;14.80;11.30;;;;;;;;;;5136529;27;20046;-93
2023/05/22 12:56:40;;;;;;;13.70;9.40;;;;;;;;;;5152674;27;20045;-90
2023/05/22 12:59:24;;;;;;;15.18;8.95;;;;;;;;;;5137504;27;20038;-92
2023/05/22 13:02:09;;;;;;;12.27;9.52;;;;;;;;;;5137388;27;20054;-94
2023/05/22 13:04:54;;;;;;;17.45;9.48;;;;;;;;;;5152784;27;20033;-94
2023/05/22 13:07:39;;;;;;;14.48;9.23;;;;;;;;;;5137651;27;20119;-92
2023/05/22 13:10:23;;;;;;;13.82;9.00;;;;;;;;;;5132477;27;20037;-94
2023/05/22 13:13:08;;;;;;;26.52;10.55;;;;;;;;;;5123405;27;20114;-94
2023/05/22 13:15:52;;;;;;;19.20;9.30;;;;;;;;;;5152239;27;20207;-92
2023/05/22 13:18:37;;;;;;;16.80;9.93;;;;;;;;;;5116865;28;20053;-93
2023/05/22 13:21:21;;;;;;;13.00;9.23;;;;;;;;;;5121848;27;20049;-92
2023/05/22 13:24:06;;;;;;;13.48;8.95;;;;;;;;;;5116750;28;20034;-93
2023/05/22 13:26:51;;;;;;;14.95;9.43;;;;;;;;;;5133282;27;20088;-93
2023/05/22 13:29:35;;;;;;;16.13;10.63;;;;;;;;;;5135965;27;20437;-93
2023/05/22 13:32:20;;;;;;;15.30;10.00;;;;;;;;;;5142471;27;20126;-94
2023/05/22 13:35:05;;;;;;;18.52;12.02;;;;;;;;;;5138818;27;20079;-94
2023/05/22 13:37:52;;;;;;;16.50;11.32;;;;;;;;;;5152597;27;20115;-91
2023/05/22 13:40:37;;;;;;;15.98;11.65;;;;;;;;;;5133167;27;20084;-91
2023/05/22 13:43:21;;;;;;;20.30;12.75;;;;;;;;;;5152946;27;20030;-93
2023/05/22 13:46:06;;;;;;;25.52;13.75;;;;;;;;;;5156593;27;20553;-91
2023/05/22 13:48:51;;;;;;;25.35;14.52;;;;;;;;;;5133533;27;20087;-91
2023/05/22 13:51:36;;;;;;;24.80;14.73;;;;;;;;;;5129928;27;20037;-94
2023/05/22 13:54:21;;;;;;;22.90;14.65;;;;;;;;;;5130707;27;20054;-96
2023/05/22 13:57:05;;;;;;;26.30;13.85;;;;;;;;;;5157538;27;20196;-93
2023/05/22 13:59:51;;;;;;;23.27;15.15;;;;;;;;;;5138861;27;20113;-94
2023/05/22 14:02:35;;;;;;;21.33;14.40;;;;;;;;;;5119987;27;20490;-93
2023/05/22 14:05:20;;;;;;;20.20;14.85;;;;;;;;;;5154071;27;20033;-95
2023/05/22 14:08:05;;;;;;;23.25;15.68;;;;;;;;;;5140988;27;20081;-94
2023/05/22 14:10:49;;;;;;;25.75;16.13;;;;;;;;;;5111957;27;20080;-89
2023/05/22 14:13:35;;;;;;;21.25;15.27;;;;;;;;;;5148385;27;20034;-95
2023/05/22 14:16:22;;;;;;;25.63;14.55;;;;;;;;;;5156342;27;20042;-93
2023/05/22 14:19:07;;;;;;;21.55;13.60;;;;;;;;;;5155966;27;20042;-91
2023/05/22 14:21:52;;;;;;;20.05;14.25;;;;;;;;;;5138206;27;20509;-92
2023/05/22 14:24:37;;;;;;;22.42;13.68;;;;;;;;;;5123578;27;20050;-92
2023/05/22 14:27:21;;;;;;;19.00;13.25;;;;;;;;;;5154445;27;20033;-96
2023/05/22 14:30:12;;;;;;;24.08;14.18;;;;;;;;;;5163391;27;20060;-96
2023/05/22 14:32:57;;;;;;;23.65;14.32;;;;;;;;;;5141754;27;20142;-94
2023/05/22 14:35:41;;;;;;;20.80;12.82;;;;;;;;;;5145809;27;20037;-94
2023/05/22 14:38:27;;;;;;;17.33;11.85;;;;;;;;;;5140150;27;20111;-94
2023/05/22 14:41:12;;;;;;;17.90;13.45;;;;;;;;;;5126686;27;20106;-93
2023/05/22 14:43:57;;;;;;;21.65;14.05;;;;;;;;;;5130782;27;20099;-93
2023/05/22 14:46:41;;;;;;;17.90;12.93;;;;;;;;;;5119634;27;20452;-94
2023/05/22 14:49:26;;;;;;;20.42;12.77;;;;;;;;;;5128176;27;20037;-93
2023/05/22 14:52:12;;;;;;;17.75;12.02;;;;;;;;;;5155953;27;20041;-91
2023/05/22 14:54:57;;;;;;;18.35;12.20;;;;;;;;;;5152520;27;20070;-94
2023/05/22 14:57:41;;;;;;;22.92;12.82;;;;;;;;;;5131736;27;20126;-92
2023/05/22 15:00:26;;;;;;;22.33;12.38;;;;;;;;;;5133234;27;20087;-88
2023/05/22 15:03:11;;;;;;;14.77;11.23;;;;;;;;;;5157350;27;20172;-92
2023/05/22 15:05:56;;;;;;;17.25;12.95;;;;;;;;;;5132979;27;20057;-91
2023/05/22 15:08:40;;;;;;;17.17;11.60;;;;;;;;;;5134723;27;20106;-93
2023/05/22 15:11:25;;;;;;;15.05;11.05;;;;;;;;;;5129648;27;20398;-93
2023/05/22 15:14:10;;;;;;;15.75;10.75;;;;;;;;;;5132833;27;20065;-92
2023/05/22 15:16:55;;;;;;;16.80;10.93;;;;;;;;;;5125344;27;20054;-92
2023/05/22 15:19:42;;;;;;;15.73;11.32;;;;;;;;;;5125506;27;20041;-94
2023/05/22 15:22:27;;;;;;;15.98;10.52;;;;;;;;;;5128009;27;20107;-94
2023/05/22 15:25:13;;;;;;;12.15;9.57;;;;;;;;;;5132414;27;20084;-92
2023/05/22 15:28:01;;;;;;;19.83;9.43;;;;;;;;;;5133438;27;20033;-89
2023/05/22 15:30:45;;;;;;;13.20;8.65;;;;;;;;;;5149875;27;20037;-94
2023/05/22 15:33:32;;;;;;;16.80;8.18;;;;;;;;;;5165552;27;20037;-95
2023/05/22 15:36:17;;;;;;;14.43;7.80;;;;;;;;;;5151395;27;20352;-94
2023/05/22 15:39:02;;;;;;;17.48;8.82;;;;;;;;;;5142621;27;20042;-93
2023/05/22 15:41:47;;;;;;;16.08;8.40;;;;;;;;;;5140698;27;20083;-90
2023/05/22 15:44:32;;;;;;;12.43;7.90;;;;;;;;;;5111871;27;20042;-88
2023/05/22 15:47:17;;;;;;;13.35;7.07;;;;;;;;;;5138754;27;20041;-90
2023/05/22 15:50:01;;;;;;;12.95;7.80;;;;;;;;;;5126525;27;20061;-89
2023/05/22 15:52:46;;;;;;;16.35;7.20;;;;;;;;;;5140340;27;20760;-92
2023/05/22 15:55:32;;;;;;;13.55;6.70;;;;;;;;;;5136003;27;20061;-93
2023/05/22 15:58:17;;;;;;;11.52;6.63;;;;;;;;;;5132285;27;20077;-92
2023/05/22 16:01:02;;;;;;;10.20;5.57;;;;;;;;;;5154305;27;20057;-92
2023/05/22 16:03:46;;;;;;;13.02;6.75;;;;;;;;;;5153776;27;20034;-93
2023/05/22 16:06:31;;;;;;;12.55;5.88;;;;;;;;;;5116429;27;20070;-95